createdAt,value
2022-09-02T00:01:39.093Z,61.30
2022-09-02T00:04:13.089Z,61.60
2022-09-02T00:06:41.135Z,61.50
2022-09-02T00:09:09.730Z,61.20
2022-09-02T00:11:38.506Z,61.20
2022-09-02T00:14:09.000Z,62.00
2022-09-02T00:16:35.882Z,62.60
2022-09-02T00:19:04.751Z,60.70
2022-09-02T00:21:33.475Z,61.90
2022-09-02T00:24:02.063Z,63.20
2022-09-02T00:26:28.987Z,62.20
2022-09-02T00:28:56.500Z,62.70
2022-09-02T00:31:27.480Z,62.90
2022-09-02T00:33:55.935Z,62.20
2022-09-02T00:36:23.324Z,63.20
2022-09-02T00:38:50.400Z,63.20
2022-09-02T00:41:21.093Z,62.60
2022-09-02T00:43:58.159Z,61.70
2022-09-02T00:46:27.209Z,62.50
2022-09-02T00:49:09.471Z,63.20
2022-09-02T00:52:11.070Z,63.10
2022-09-02T00:54:44.130Z,63.30
2022-09-02T00:57:15.120Z,65.10
2022-09-02T00:59:57.321Z,63.90
2022-09-02T01:02:24.507Z,62.40
2022-09-02T01:04:53.082Z,63.00
2022-09-02T01:07:19.930Z,63.80
2022-09-02T01:09:47.046Z,63.10
2022-09-02T01:12:13.946Z,64.80
2022-09-02T01:14:40.800Z,64.20
2022-09-02T01:17:10.185Z,63.30
2022-09-02T01:19:43.375Z,64.90
2022-09-02T01:22:23.679Z,64.40
2022-09-02T01:24:51.224Z,65.10
2022-09-02T01:27:20.588Z,65.50
2022-09-02T01:29:52.371Z,65.80
2022-09-02T01:32:20.319Z,65.30
2022-09-02T01:34:47.563Z,63.90
2022-09-02T01:37:14.558Z,65.10
2022-09-02T01:39:41.570Z,64.50
2022-09-02T01:42:08.461Z,66.50
2022-09-02T01:44:36.493Z,65.70
2022-09-02T01:47:04.505Z,64.20
2022-09-02T01:49:33.335Z,65.60
2022-09-02T01:52:03.897Z,65.50
2022-09-02T01:54:32.208Z,68.80
2022-09-02T01:56:59.104Z,66.80
2022-09-02T01:59:25.989Z,67.40
2022-09-02T02:01:53.517Z,68.40
2022-09-02T02:04:20.790Z,70.70
2022-09-02T02:06:48.827Z,68.20
2022-09-02T02:09:19.881Z,69.80
2022-09-02T02:11:48.447Z,69.40
2022-09-02T02:14:17.088Z,69.90
2022-09-02T02:16:49.946Z,69.50
2022-09-02T02:19:18.100Z,69.10
2022-09-02T02:21:44.982Z,67.60
2022-09-02T02:24:12.040Z,68.40
2022-09-02T02:26:39.049Z,68.40
2022-09-02T02:29:08.506Z,67.30
2022-09-02T02:31:36.782Z,68.50
2022-09-02T02:34:04.543Z,66.10
2022-09-02T02:36:51.751Z,67.30
2022-09-02T02:39:19.942Z,68.70
2022-09-02T02:41:46.802Z,68.30
2022-09-02T02:44:15.656Z,68.40
2022-09-02T02:46:43.787Z,69.30
2022-09-02T02:49:12.691Z,66.60
2022-09-02T02:51:40.881Z,67.50
2022-09-02T02:54:10.526Z,67.70
2022-09-02T02:56:37.528Z,68.90
2022-09-02T02:59:04.444Z,68.70
2022-09-02T03:01:33.243Z,68.00
2022-09-02T03:04:00.346Z,69.30
2022-09-02T03:06:27.980Z,69.60
2022-09-02T03:08:55.373Z,70.60
2022-09-02T03:11:22.353Z,70.00
2022-09-02T03:13:50.819Z,69.10
2022-09-02T03:16:18.775Z,71.20
2022-09-02T03:18:47.633Z,70.40
2022-09-02T03:21:14.565Z,69.60
2022-09-02T03:23:43.310Z,70.40
2022-09-02T03:26:18.876Z,70.50
2022-09-02T03:28:46.371Z,70.50
2022-09-02T03:31:17.224Z,69.00
2022-09-02T03:33:44.505Z,70.60
2022-09-02T03:36:30.590Z,69.50
2022-09-02T03:38:59.236Z,71.60
2022-09-02T03:41:28.538Z,71.90
2022-09-02T03:43:57.394Z,73.30
2022-09-02T03:46:24.396Z,72.90
2022-09-02T03:48:52.167Z,72.70
2022-09-02T03:51:21.699Z,73.70
2022-09-02T03:53:49.036Z,74.90
2022-09-02T03:56:16.797Z,74.90
2022-09-02T03:58:46.273Z,75.80
2022-09-02T04:01:20.596Z,74.80
2022-09-02T04:03:48.174Z,76.90
2022-09-02T04:06:17.039Z,78.40
2022-09-02T04:08:44.908Z,76.10
2022-09-02T04:11:14.716Z,77.50
2022-09-02T04:13:42.294Z,77.90
2022-09-02T04:16:11.978Z,78.60
2022-09-02T04:18:39.450Z,76.30
2022-09-02T04:21:06.827Z,76.10
2022-09-02T04:23:36.310Z,73.90
2022-09-02T04:26:12.893Z,73.50
2022-09-02T04:28:40.536Z,73.10
2022-09-02T04:31:10.315Z,74.20
2022-09-02T04:33:38.085Z,72.40
2022-09-02T04:36:08.279Z,72.70
2022-09-02T04:38:36.073Z,72.00
2022-09-02T04:41:18.167Z,73.10
2022-09-02T04:43:45.391Z,70.90
2022-09-02T04:46:15.741Z,69.60
2022-09-02T04:48:45.276Z,70.60
2022-09-02T04:51:18.488Z,69.70
2022-09-02T04:53:47.121Z,68.20
2022-09-02T04:56:20.280Z,69.80
2022-09-02T04:58:48.320Z,69.20
2022-09-02T05:01:21.495Z,70.10
2022-09-02T05:03:50.143Z,69.50
2022-09-02T05:06:20.188Z,70.30
2022-09-02T05:08:47.264Z,69.20
2022-09-02T05:11:20.677Z,68.90
2022-09-02T05:13:49.909Z,69.50
2022-09-02T05:16:18.049Z,69.10
2022-09-02T05:18:45.003Z,68.20
2022-09-02T05:21:13.040Z,67.30
2022-09-02T05:23:40.707Z,67.70
2022-09-02T05:26:09.675Z,67.10
2022-09-02T05:28:37.763Z,67.60
2022-09-02T05:31:07.685Z,67.20
2022-09-02T05:33:35.778Z,67.20
2022-09-02T05:36:03.821Z,66.90
2022-09-02T05:38:31.013Z,67.70
2022-09-02T05:40:58.869Z,67.10
2022-09-02T05:43:26.451Z,66.20
2022-09-02T05:45:53.410Z,66.90
2022-09-02T05:48:20.639Z,66.60
2022-09-02T05:50:50.213Z,65.00
2022-09-02T05:53:24.581Z,65.50
2022-09-02T05:55:52.039Z,65.20
2022-09-02T05:58:19.107Z,63.30
2022-09-02T06:00:45.985Z,64.60
2022-09-02T06:03:12.915Z,64.80
2022-09-02T06:05:40.591Z,64.80
2022-09-02T06:08:15.015Z,63.90
2022-09-02T06:10:42.824Z,63.10
2022-09-02T06:13:12.191Z,64.50
2022-09-02T06:15:43.585Z,63.90
2022-09-02T06:18:12.525Z,64.40
2022-09-02T06:20:43.090Z,64.40
2022-09-02T06:23:10.942Z,66.20
2022-09-02T06:25:43.693Z,64.50
2022-09-02T06:28:11.695Z,63.60
2022-09-02T06:30:46.617Z,63.70
2022-09-02T06:33:13.577Z,63.70
2022-09-02T06:35:45.522Z,62.80
2022-09-02T06:38:15.619Z,64.10
2022-09-02T06:40:52.465Z,65.00
2022-09-02T06:43:25.537Z,65.50
2022-09-02T06:46:04.186Z,64.40
2022-09-02T06:48:33.169Z,65.40
2022-09-02T06:51:00.938Z,62.80
2022-09-02T06:53:28.397Z,62.40
2022-09-02T06:55:55.311Z,62.40
2022-09-02T06:58:22.389Z,63.00
2022-09-02T07:00:49.669Z,63.70
2022-09-02T07:03:16.857Z,63.40
2022-09-02T07:05:44.425Z,61.40
2022-09-02T07:08:12.468Z,62.50
2022-09-02T07:10:41.355Z,63.90
2022-09-02T07:13:09.655Z,62.70
2022-09-02T07:15:37.249Z,63.60
2022-09-02T07:18:04.252Z,63.70
2022-09-02T07:20:34.532Z,62.70
2022-09-02T07:23:03.119Z,65.60
2022-09-02T07:25:32.512Z,60.80
2022-09-02T07:27:59.818Z,62.30
2022-09-02T07:30:30.283Z,60.40
2022-09-02T07:33:04.114Z,61.00
2022-09-02T07:35:32.443Z,63.70
2022-09-02T07:37:59.823Z,63.70
2022-09-02T07:40:26.908Z,61.50
2022-09-02T07:42:54.958Z,62.40
2022-09-02T07:45:23.069Z,62.50
2022-09-02T07:47:50.640Z,62.00
2022-09-02T07:50:21.253Z,63.00
2022-09-02T07:52:58.493Z,59.70
2022-09-02T07:55:28.329Z,62.50
2022-09-02T07:57:56.194Z,59.90
2022-09-02T08:00:24.940Z,60.20
2022-09-02T08:02:52.376Z,59.70
2022-09-02T08:05:26.598Z,59.20
2022-09-02T08:07:53.734Z,59.50
2022-09-02T08:10:21.296Z,60.60
2022-09-02T08:12:48.542Z,59.90
2022-09-02T08:15:16.212Z,63.50
2022-09-02T08:17:44.154Z,60.80
2022-09-02T08:20:12.906Z,58.60
2022-09-02T08:22:40.813Z,60.00
2022-09-02T08:25:08.723Z,61.00
2022-09-02T08:27:36.960Z,59.40
2022-09-02T08:30:08.888Z,61.50
2022-09-02T08:32:36.868Z,60.60
2022-09-02T08:35:04.928Z,60.80
2022-09-02T08:37:33.221Z,62.40
2022-09-02T08:40:00.966Z,62.70
2022-09-02T08:42:37.594Z,61.30
2022-09-02T08:45:11.550Z,62.00
2022-09-02T08:47:41.079Z,63.70
2022-09-02T08:50:14.616Z,63.50
2022-09-02T08:53:06.558Z,61.40
2022-09-02T08:55:43.383Z,62.00
2022-09-02T08:58:11.602Z,60.80
2022-09-02T09:00:41.314Z,61.70
2022-09-02T09:03:33.740Z,61.50
2022-09-02T09:06:20.781Z,61.90
2022-09-02T09:09:00.440Z,61.00
2022-09-02T09:11:53.462Z,61.90
2022-09-02T09:15:17.948Z,61.00
2022-09-02T09:17:50.003Z,61.00
2022-09-02T09:20:22.572Z,62.40
2022-09-02T09:22:52.396Z,61.60
2022-09-02T09:25:19.830Z,63.60
2022-09-02T09:27:46.652Z,62.70
2022-09-02T09:30:15.442Z,59.40
2022-09-02T09:32:55.491Z,60.70
2022-09-02T09:35:22.540Z,61.10
2022-09-02T09:37:55.139Z,62.10
2022-09-02T09:40:29.803Z,60.60
2022-09-02T09:43:05.964Z,61.80
2022-09-02T09:45:46.135Z,62.70
2022-09-02T09:48:24.452Z,60.50
2022-09-02T09:50:57.444Z,58.80
2022-09-02T09:53:27.591Z,62.70
2022-09-02T09:55:59.915Z,60.00
2022-09-02T09:58:33.070Z,60.10
2022-09-02T10:01:19.008Z,61.80
2022-09-02T10:03:57.164Z,60.60
2022-09-02T10:06:30.194Z,59.30
2022-09-02T10:09:00.874Z,60.50
2022-09-02T10:11:33.406Z,60.70
2022-09-02T10:14:09.695Z,60.70
2022-09-02T10:16:59.695Z,60.50
2022-09-02T10:19:40.522Z,60.10
2022-09-02T10:22:58.986Z,60.40
2022-09-02T10:25:36.227Z,58.10
2022-09-02T10:28:39.809Z,60.20
2022-09-02T10:31:18.810Z,59.10
2022-09-02T10:34:36.383Z,59.70
2022-09-02T10:37:12.572Z,59.40
2022-09-02T10:39:54.674Z,59.30
2022-09-02T10:42:27.392Z,59.30
2022-09-02T10:45:18.544Z,58.40
2022-09-02T10:48:14.392Z,59.00
2022-09-02T10:50:50.127Z,60.40
2022-09-02T10:53:31.923Z,59.10
2022-09-02T10:56:13.257Z,59.10
2022-09-02T10:58:52.065Z,59.90
2022-09-02T11:01:28.177Z,61.30
2022-09-02T11:04:16.989Z,59.60
2022-09-02T11:07:02.339Z,58.20
2022-09-02T11:09:46.092Z,60.00
2022-09-02T11:12:15.715Z,59.50
2022-09-02T11:14:53.658Z,59.00
2022-09-02T11:17:43.476Z,58.10
2022-09-02T11:20:28.744Z,57.50
2022-09-02T11:23:06.549Z,59.10
2022-09-02T11:25:40.253Z,60.20
2022-09-02T11:28:45.101Z,59.00
2022-09-02T11:31:43.208Z,58.60
2022-09-02T11:34:28.884Z,60.40
2022-09-02T11:36:56.391Z,59.90
2022-09-02T11:40:11.173Z,59.50
2022-09-02T11:42:58.180Z,59.20
2022-09-02T11:46:02.713Z,61.10
2022-09-02T11:49:17.144Z,61.20
2022-09-02T11:52:05.204Z,58.70
2022-09-02T11:54:39.405Z,59.80
2022-09-02T11:57:07.381Z,63.30
2022-09-02T11:59:52.927Z,61.10
2022-09-02T12:02:40.780Z,60.10
2022-09-02T12:05:29.852Z,60.40
2022-09-02T12:08:02.276Z,61.20
2022-09-02T12:10:41.866Z,61.10
2022-09-02T12:13:38.953Z,61.00
2022-09-02T12:16:15.686Z,60.00
2022-09-02T12:18:44.781Z,59.80
2022-09-02T12:21:18.955Z,58.10
2022-09-02T12:23:53.283Z,60.10
2022-09-02T12:26:25.998Z,60.40
2022-09-02T12:28:53.871Z,58.10
2022-09-02T12:31:50.126Z,57.90
2022-09-02T12:34:26.224Z,59.10
2022-09-02T12:36:53.717Z,58.00
2022-09-02T12:39:23.619Z,59.70
2022-09-02T12:42:08.953Z,57.50
2022-09-02T12:45:15.830Z,57.20
2022-09-02T12:48:15.958Z,58.80
2022-09-02T12:50:53.533Z,58.20
2022-09-02T12:53:35.735Z,60.30
2022-09-02T12:56:06.389Z,59.00
2022-09-02T12:58:45.246Z,57.60
2022-09-02T13:01:37.366Z,58.10
2022-09-02T13:04:27.607Z,58.40
2022-09-02T13:07:25.480Z,59.90
2022-09-02T13:10:17.961Z,59.90
2022-09-02T13:13:03.546Z,60.30
2022-09-02T13:15:50.760Z,58.20
2022-09-02T13:18:44.957Z,58.20
2022-09-02T13:21:57.110Z,59.20
2022-09-02T13:24:42.871Z,57.80
2022-09-02T13:27:25.987Z,59.40
2022-09-02T13:30:25.650Z,59.20
2022-09-02T13:33:06.630Z,60.90
2022-09-02T13:35:36.355Z,57.80
2022-09-02T13:38:03.519Z,58.40
2022-09-02T13:40:33.421Z,58.10
2022-09-02T13:43:24.758Z,58.70
2022-09-02T13:45:54.624Z,57.00
2022-09-02T13:48:30.989Z,57.90
2022-09-02T13:51:02.291Z,58.20
2022-09-02T13:53:53.991Z,58.70
2022-09-02T13:56:28.283Z,57.40
2022-09-02T13:58:55.506Z,58.30
2022-09-02T14:01:32.785Z,58.60
2022-09-02T14:06:37.400Z,58.80
2022-09-02T14:09:17.961Z,59.40
2022-09-02T14:11:46.301Z,59.40
2022-09-02T14:14:19.948Z,60.60
2022-09-02T14:16:46.979Z,63.00
2022-09-02T14:19:17.129Z,60.10
2022-09-02T14:21:57.676Z,60.80
2022-09-02T14:24:28.215Z,59.40
2022-09-02T14:26:57.547Z,59.70
2022-09-02T14:29:26.246Z,59.90
2022-09-02T14:32:06.913Z,60.20
2022-09-02T14:34:42.292Z,59.80
2022-09-02T14:37:22.860Z,59.20
2022-09-02T14:40:11.804Z,60.50
2022-09-02T14:42:48.423Z,58.80
2022-09-02T14:45:28.648Z,58.10
2022-09-02T14:47:57.895Z,59.10
2022-09-02T14:50:29.673Z,59.20
2022-09-02T14:53:02.545Z,59.80
2022-09-02T14:55:59.116Z,60.50
2022-09-02T14:58:28.351Z,61.20
2022-09-02T15:00:58.646Z,62.90
2022-09-02T15:03:27.075Z,61.50
2022-09-02T15:05:54.014Z,60.50
2022-09-02T15:08:21.604Z,61.50
2022-09-02T15:10:49.143Z,61.80
2022-09-02T15:13:34.310Z,62.40
2022-09-02T15:16:02.870Z,62.30
2022-09-02T15:18:30.303Z,63.10
2022-09-02T15:20:57.673Z,60.80
2022-09-02T15:23:25.269Z,63.20
2022-09-02T15:25:53.984Z,63.10
2022-09-02T15:28:21.177Z,62.80
2022-09-02T15:30:48.427Z,62.80
2022-09-02T15:33:17.576Z,63.90
2022-09-02T15:35:45.232Z,62.20
2022-09-02T15:38:12.131Z,64.10
2022-09-02T15:40:39.021Z,63.10
2022-09-02T15:43:05.926Z,63.90
2022-09-02T15:45:32.770Z,64.20
2022-09-02T15:47:59.899Z,63.70
2022-09-02T15:50:31.681Z,62.90
2022-09-02T15:52:58.719Z,62.70
2022-09-02T15:55:29.440Z,63.10
2022-09-02T15:57:56.959Z,63.40
2022-09-02T16:00:23.931Z,64.50
2022-09-02T16:02:54.981Z,62.80
2022-09-02T16:05:21.819Z,63.10
2022-09-02T16:07:48.879Z,64.40
2022-09-02T16:10:15.915Z,62.80
2022-09-02T16:12:42.979Z,64.40
2022-09-02T16:15:10.020Z,64.20
2022-09-02T16:17:36.949Z,63.50
2022-09-02T16:20:04.787Z,63.20
2022-09-02T16:22:31.729Z,62.30
2022-09-02T16:24:58.796Z,63.60
2022-09-02T16:27:25.656Z,67.60
2022-09-02T16:29:52.994Z,70.00
2022-09-02T16:32:27.447Z,70.90
2022-09-02T16:34:54.862Z,72.40
2022-09-02T16:37:21.923Z,73.10
2022-09-02T16:39:48.872Z,74.50
2022-09-02T16:42:15.785Z,74.10
2022-09-02T16:44:43.088Z,73.80
2022-09-02T16:47:12.928Z,74.10
2022-09-02T16:49:40.915Z,75.10
2022-09-02T16:52:07.947Z,76.20
2022-09-02T16:54:38.679Z,77.20
2022-09-02T16:57:07.716Z,77.60
2022-09-02T16:59:34.621Z,76.30
2022-09-02T17:02:01.813Z,75.40
2022-09-02T17:04:29.654Z,76.00
2022-09-02T17:06:57.038Z,74.90
2022-09-02T17:09:24.141Z,76.80
2022-09-02T17:11:53.817Z,77.80
2022-09-02T17:14:21.222Z,77.40
2022-09-02T17:16:50.080Z,77.90
2022-09-02T17:19:18.767Z,78.60
2022-09-02T17:21:53.376Z,78.40
2022-09-02T17:24:25.708Z,78.80
2022-09-02T17:26:53.588Z,79.60
2022-09-02T17:32:09.409Z,79.60
2022-09-02T17:34:37.174Z,80.00
2022-09-02T17:37:04.280Z,80.60
2022-09-02T17:39:31.251Z,81.40
2022-09-02T17:41:58.223Z,81.40
2022-09-02T17:44:28.076Z,82.70
2022-09-02T17:46:56.672Z,81.10
2022-09-02T17:49:23.607Z,80.80
2022-09-02T17:51:50.560Z,81.30
2022-09-02T17:54:17.865Z,82.60
2022-09-02T17:57:03.106Z,81.50
2022-09-02T17:59:47.070Z,81.80
2022-09-02T18:02:36.121Z,83.40
2022-09-02T18:05:08.289Z,83.10
2022-09-02T18:07:44.064Z,82.20
2022-09-02T18:10:14.458Z,82.10
2022-09-02T18:12:41.482Z,82.80
2022-09-02T18:15:18.283Z,82.30
2022-09-02T18:17:52.933Z,82.30
2022-09-02T18:20:36.168Z,83.30
2022-09-02T18:23:28.731Z,83.30
2022-09-02T18:26:10.614Z,84.00
2022-09-02T18:28:52.524Z,84.30
2022-09-02T18:31:30.878Z,84.40
2022-09-02T18:34:49.229Z,84.10
2022-09-02T18:37:29.838Z,84.50
2022-09-02T18:40:34.719Z,84.60
2022-09-02T18:43:26.886Z,85.40
2022-09-02T18:45:56.989Z,85.70
2022-09-02T18:48:28.592Z,85.70
2022-09-02T18:51:24.889Z,86.00
2022-09-02T18:53:56.927Z,85.10
2022-09-02T18:56:29.824Z,85.20
2022-09-02T18:58:59.747Z,84.80
2022-09-02T19:01:32.635Z,85.90
2022-09-02T19:04:00.349Z,86.20
2022-09-02T19:06:31.498Z,86.60
2022-09-02T19:09:02.203Z,88.20
2022-09-02T19:11:33.582Z,90.10
2022-09-02T19:14:27.924Z,90.50
2022-09-02T19:16:57.865Z,90.50
2022-09-02T19:19:26.611Z,90.80
2022-09-02T19:22:00.245Z,91.20
2022-09-02T19:24:31.773Z,91.50
2022-09-02T19:27:04.092Z,91.40
2022-09-02T19:29:34.050Z,91.50
2022-09-02T19:32:01.406Z,91.60
2022-09-02T19:34:35.125Z,92.00
2022-09-02T19:37:02.556Z,92.20
2022-09-02T19:39:29.938Z,92.10
2022-09-02T19:41:57.397Z,92.70
2022-09-02T19:44:24.760Z,92.70
2022-09-02T19:49:39.051Z,93.20
2022-09-02T19:52:06.702Z,93.90
2022-09-02T19:54:34.036Z,93.50
2022-09-02T19:57:01.588Z,93.60
2022-09-02T19:59:28.999Z,93.60
2022-09-02T20:01:56.677Z,94.00
2022-09-02T20:04:24.139Z,94.40
2022-09-02T20:06:54.939Z,94.50
2022-09-02T20:09:22.095Z,94.70
2022-09-02T20:11:50.173Z,94.90
2022-09-02T20:14:17.343Z,94.80
2022-09-02T20:16:44.826Z,95.00
2022-09-02T20:19:12.382Z,94.90
2022-09-02T20:21:45.177Z,94.10
2022-09-02T20:24:15.313Z,94.60
2022-09-02T20:26:53.859Z,94.80
2022-09-02T20:29:55.392Z,95.20
2022-09-02T20:32:37.210Z,95.10
2022-09-02T20:35:32.408Z,95.60
2022-09-02T20:38:05.156Z,95.80
2022-09-02T20:40:58.305Z,96.20
2022-09-02T20:43:58.434Z,96.50
2022-09-02T20:46:46.869Z,96.20
2022-09-02T20:49:46.512Z,95.90
2022-09-02T20:52:21.779Z,95.50
2022-09-02T20:54:58.748Z,95.50
2022-09-02T20:57:37.533Z,95.80
2022-09-02T21:00:09.681Z,95.80
2022-09-02T21:02:50.271Z,95.40
2022-09-02T21:05:26.245Z,95.20
2022-09-02T21:08:05.734Z,94.70
2022-09-02T21:10:38.062Z,94.00
2022-09-02T21:13:34.934Z,94.30
2022-09-02T21:16:09.452Z,94.70
2022-09-02T21:19:02.069Z,94.80
2022-09-02T21:21:40.604Z,95.10
2022-09-02T21:24:37.068Z,95.20
2022-09-02T21:27:05.139Z,94.70
2022-09-02T21:29:46.892Z,94.40
2022-09-02T21:32:30.666Z,94.60
2022-09-02T21:35:18.488Z,93.40
2022-09-02T21:37:46.498Z,93.60
2022-09-02T21:40:18.252Z,93.60
2022-09-02T21:43:19.557Z,94.30
2022-09-02T21:46:09.601Z,94.90
2022-09-02T21:49:02.270Z,95.30
2022-09-02T21:51:52.606Z,94.90
2022-09-02T21:54:48.646Z,94.60
2022-09-02T21:57:41.711Z,94.20
2022-09-02T22:00:11.545Z,94.30
2022-09-02T22:02:47.034Z,93.90
2022-09-02T22:05:25.867Z,94.00
2022-09-02T22:08:03.426Z,93.80
2022-09-02T22:10:35.952Z,93.90
2022-09-02T22:13:03.806Z,94.00
2022-09-02T22:15:40.389Z,94.10
2022-09-02T22:18:22.843Z,95.00
2022-09-02T22:20:52.539Z,95.10
2022-09-02T22:23:23.515Z,95.20
2022-09-02T22:25:51.246Z,95.50
2022-09-02T22:28:26.685Z,95.90
2022-09-02T22:30:58.332Z,95.60
2022-09-02T22:33:30.840Z,94.60
2022-09-02T22:36:05.715Z,94.70
2022-09-02T22:38:39.133Z,94.70
2022-09-02T22:41:28.771Z,94.80
2022-09-02T22:44:13.325Z,94.80
2022-09-02T22:47:06.674Z,95.00
2022-09-02T22:49:42.004Z,94.80
2022-09-02T22:52:26.823Z,94.40
2022-09-02T22:54:54.156Z,94.40
2022-09-02T22:57:49.019Z,94.50
2022-09-02T23:00:17.594Z,94.40
2022-09-02T23:02:53.543Z,94.20
2022-09-02T23:05:40.017Z,94.00
2022-09-02T23:08:08.579Z,94.40
2022-09-02T23:10:45.651Z,94.20
2022-09-02T23:13:24.224Z,94.50
2022-09-02T23:16:05.270Z,94.40
2022-09-02T23:19:01.334Z,94.50
2022-09-02T23:21:45.137Z,94.50
2022-09-02T23:24:23.202Z,94.80
2022-09-02T23:27:16.219Z,94.70
2022-09-02T23:29:43.140Z,95.00
2022-09-02T23:32:38.189Z,94.90
2022-09-02T23:35:29.652Z,94.40
2022-09-02T23:38:22.757Z,94.40
2022-09-02T23:40:59.581Z,95.00
2022-09-02T23:43:26.633Z,94.60
2022-09-02T23:45:54.894Z,94.40
2022-09-02T23:48:46.548Z,94.80
2022-09-02T23:51:21.232Z,95.00
2022-09-02T23:53:57.119Z,94.60
2022-09-02T23:56:52.957Z,94.60
2022-09-02T23:59:49.301Z,94.70
